Time;durP1;ratioP1;P1;durP2;ratioP2;P2;SDS_P1;SDS_P2;PMS_P1;PMS_P2;Temp;Humidity;BMP_temperature;BMP_pressure;BME280_temperature;BME280_humidity;BME280_pressure;Samples;Min_cycle;Max_cycle;Signal;HPM_P1;HPM_P2
2023/10/19 00:00:21;;;;;;;0.50;0.50;;;;;;;9.56;100.00;95281.84;29396;249;63005;-90
2023/10/19 00:01:00;;;;;;;0.73;0.73;;;;;;;9.61;100.00;95277.06;29396;279;63019;-90
2023/10/19 00:02:34;;;;;;;0.50;0.50;;;;;;;9.57;100.00;95280.72;29396;221;63005;-90
2023/10/19 00:03:28;;;;;;;0.50;0.50;;;;;;;9.53;100.00;95275.16;29396;203;63009;-90
2023/10/19 00:05:17;;;;;;;0.69;0.69;;;;;;;9.64;100.00;95275.63;88157;219;64005;-60
2023/10/19 00:05:48;;;;;;;1.40;0.85;;;;;;;9.67;100.00;95280.38;29394;221;64009;-61
2023/10/19 00:06:20;;;;;;;0.50;0.50;;;;;;;9.69;100.00;95278.13;29395;227;63004;-66
2023/10/19 00:06:55;;;;;;;0.50;0.50;;;;;;;9.68;100.00;95276.56;29394;227;64009;-61
2023/10/19 00:07:30;;;;;;;0.50;0.50;;;;;;;9.68;100.00;95276.56;29395;229;63004;-58
2023/10/19 00:08:15;;;;;;;0.60;0.60;;;;;;;9.72;100.00;95277.47;29395;203;63009;-63
2023/10/19 00:08:46;;;;;;;0.75;0.75;;;;;;;9.69;100.00;95275.44;29395;271;63005;-62
2023/10/19 00:09:20;;;;;;;0.50;0.50;;;;;;;9.68;100.00;95277.34;29395;269;63009;-62
2023/10/19 00:09:53;;;;;;;0.50;0.50;;;;;;;9.69;100.00;95278.13;29395;265;63016;-61
2023/10/19 00:10:29;;;;;;;0.50;0.50;;;;;;;9.66;100.00;95273.38;29394;210;64013;-64
2023/10/19 00:11:10;;;;;;;0.50;0.50;;;;;;;9.65;100.00;95271.78;29395;202;63005;-63
2023/10/19 00:11:42;;;;;;;0.60;0.60;;;;;;;9.63;100.00;95279.44;29417;209;63009;-62
2023/10/19 00:12:15;;;;;;;0.65;0.65;;;;;;;9.60;100.00;95280.09;29395;250;63004;-63
2023/10/19 00:12:54;;;;;;;0.55;0.55;;;;;;;9.59;100.00;95273.09;29395;212;63009;-62
2023/10/19 00:13:28;;;;;;;0.50;0.50;;;;;;;9.59;100.00;95284.72;29395;225;63004;-61
2023/10/19 00:14:01;;;;;;;0.80;0.80;;;;;;;9.60;100.00;95280.09;29395;213;63009;-60
2023/10/19 00:14:32;;;;;;;0.60;0.60;;;;;;;9.61;100.00;95276.25;29394;430;64008;-62
2023/10/19 00:15:05;;;;;;;3.83;3.70;;;;;;;9.60;100.00;95280.09;29395;202;63008;-62
2023/10/19 00:15:40;;;;;;;0.50;0.50;;;;;;;9.64;100.00;95270.19;29395;352;63005;-61
2023/10/19 00:16:16;;;;;;;1.05;1.05;;;;;;;9.68;100.00;95273.84;29395;331;63009;-63
2023/10/19 00:16:59;;;;;;;0.50;0.50;;;;;;;9.68;100.00;95274.63;29395;225;63005;-59
2023/10/19 00:17:32;;;;;;;0.50;0.50;;;;;;;9.74;100.00;95273.31;29395;209;63020;-62
2023/10/19 00:19:07;;;;;;;0.60;0.60;;;;;;;9.74;100.00;95275.22;29395;205;63009;-59
2023/10/19 00:19:40;;;;;;;0.70;0.70;;;;;;;9.77;100.00;95268.34;29394;233;64009;-55
2023/10/19 00:21:54;;;;;;;0.50;0.50;;;;;;;9.79;100.00;95272.34;29416;348;64013;-63
2023/10/19 00:22:30;;;;;;;1.50;1.40;;;;;;;9.77;100.00;95277.28;29395;323;63004;-63
2023/10/19 00:23:05;;;;;;;1.92;1.83;;;;;;;9.78;100.00;95276.16;29395;218;63009;-61
2023/10/19 00:23:37;;;;;;;0.50;0.50;;;;;;;9.74;100.00;95277.94;29395;270;63005;-62
2023/10/19 00:24:09;;;;;;;0.50;0.50;;;;;;;9.70;100.00;95282.44;29395;476;63026;-62
2023/10/19 00:24:41;;;;;;;0.60;0.60;;;;;;;9.70;100.00;95285.91;29395;259;63005;-60
2023/10/19 00:25:13;;;;;;;0.50;0.50;;;;;;;9.72;100.00;95283.66;29395;197;63025;-60
2023/10/19 00:25:50;;;;;;;0.50;0.50;;;;;;;9.75;100.00;95282.22;29395;202;63008;-62
2023/10/19 00:26:25;;;;;;;0.50;0.50;;;;;;;9.81;100.00;95278.22;29395;221;63009;-58
2023/10/19 00:26:56;;;;;;;1.75;1.65;;;;;;;9.81;100.00;95280.94;29394;197;64009;-61
2023/10/19 00:27:27;;;;;;;0.50;0.50;;;;;;;9.81;100.00;95280.94;29395;405;63009;-64
2023/10/19 00:28:01;;;;;;;1.30;1.30;;;;;;;9.80;100.00;95284.75;29395;221;63004;-62
2023/10/19 00:28:35;;;;;;;0.50;0.50;;;;;;;9.82;100.00;95287.94;29395;198;63009;-59
2023/10/19 00:30:06;;;;;;;0.50;0.50;;;;;;;9.79;100.00;95280.47;29417;236;63008;-63
2023/10/19 00:30:37;;;;;;;0.50;0.50;;;;;;;9.78;100.00;95287.00;29395;211;63005;-61
2023/10/19 00:31:13;;;;;;;0.77;0.77;;;;;;;9.78;100.00;95292.41;29395;249;63009;-62
2023/10/19 00:31:44;;;;;;;2.35;2.28;;;;;;;9.77;100.00;95290.03;29395;233;63005;-59
2023/10/19 00:32:19;;;;;;;0.70;0.70;;;;;;;9.75;100.00;95290.34;29394;507;64013;-62
2023/10/19 00:32:50;;;;;;;0.50;0.50;;;;;;;9.74;100.00;95286.84;29395;512;63005;-62
2023/10/19 00:33:22;;;;;;;0.50;0.50;;;;;;;9.72;100.00;95288.28;29395;413;63009;-63
2023/10/19 00:33:54;;;;;;;0.50;0.50;;;;;;;9.71;100.00;95282.09;29395;234;63005;-63
2023/10/19 00:34:28;;;;;;;0.50;0.50;;;;;;;9.73;100.00;95287.19;29395;206;63009;-62
2023/10/19 00:35:08;;;;;;;0.62;0.62;;;;;;;9.72;100.00;95288.28;29394;224;64009;-62
2023/10/19 00:35:47;;;;;;;0.50;0.50;;;;;;;9.69;100.00;95283.56;29395;198;63009;-61
2023/10/19 00:36:20;;;;;;;30.75;27.85;;;;;;;9.67;100.00;95291.22;29385;207;65004;-62
2023/10/19 00:36:52;;;;;;;1.15;1.15;;;;;;;9.70;100.00;95290.56;29394;199;64013;-62
2023/10/19 00:37:26;;;;;;;0.57;0.57;;;;;;;9.72;100.00;95286.38;29395;255;63004;-61
2023/10/19 00:38:18;;;;;;;0.50;0.50;;;;;;;9.73;100.00;95284.47;29395;479;63008;-60
2023/10/19 00:38:53;;;;;;;0.50;0.50;;;;;;;9.76;100.00;95286.53;29417;332;63005;-62
2023/10/19 00:39:27;;;;;;;0.47;0.47;;;;;;;9.78;100.00;95294.31;29395;209;63009;-62
2023/10/19 00:40:14;;;;;;;0.50;0.50;;;;;;;9.79;100.00;95287.78;29395;206;63015;-62
2023/10/19 00:41:13;;;;;;;0.55;0.55;;;;;;;9.80;100.00;95284.75;29395;259;63009;-64
2023/10/19 00:41:49;;;;;;;0.50;0.50;;;;;;;9.78;100.00;95281.56;29395;271;63005;-60
2023/10/19 00:42:25;;;;;;;0.70;0.70;;;;;;;9.79;100.00;95288.59;29394;361;64006;-59
2023/10/19 00:42:57;;;;;;;0.50;0.50;;;;;;;9.78;100.00;95283.50;29395;207;63011;-63
2023/10/19 00:43:34;;;;;;;0.50;0.50;;;;;;;9.77;100.00;95274.56;29395;202;63009;-60
2023/10/19 00:44:11;;;;;;;0.50;0.50;;;;;;;9.80;100.00;95283.97;29395;233;63004;-58
2023/10/19 00:44:43;;;;;;;1.50;1.50;;;;;;;9.84;100.00;95284.91;29395;233;63008;-64
2023/10/19 00:45:24;;;;;;;0.50;0.50;;;;;;;9.83;100.00;95278.69;29394;202;64008;-59
2023/10/19 00:45:56;;;;;;;0.50;0.50;;;;;;;9.83;100.00;95278.69;29416;307;64014;-64
2023/10/19 00:46:32;;;;;;;0.50;0.50;;;;;;;9.86;100.00;95277.25;29395;198;63005;-60
2023/10/19 00:47:07;;;;;;;0.50;0.50;;;;;;;9.87;100.00;95273.41;29395;238;63009;-64
2023/10/19 00:47:42;;;;;;;0.50;0.50;;;;;;;9.86;100.00;95272.62;29395;267;63008;-64
2023/10/19 00:48:14;;;;;;;0.70;0.70;;;;;;;9.85;100.00;95275.66;29395;389;63009;-64
2023/10/19 00:48:58;;;;;;;0.50;0.50;;;;;;;9.85;100.00;95265.63;29395;290;63005;-60
2023/10/19 00:49:30;;;;;;;0.50;0.50;;;;;;;9.86;100.00;95266.41;29395;198;63009;-64
2023/10/19 00:50:03;;;;;;;0.50;0.50;;;;;;;9.86;100.00;95269.91;29395;218;63004;-61
2023/10/19 00:50:36;;;;;;;0.50;0.50;;;;;;;9.85;100.00;95260.19;29394;198;64013;-61
2023/10/19 00:51:23;;;;;;;0.50;0.50;;;;;;;9.87;100.00;95268.00;29395;391;63004;-66
2023/10/19 00:52:57;;;;;;;0.50;0.50;;;;;;;9.89;100.00;95263.84;29394;207;64008;-64
2023/10/19 00:53:29;;;;;;;0.50;0.50;;;;;;;9.90;100.00;95254.59;29395;239;63009;-65
2023/10/19 00:54:10;;;;;;;0.50;0.50;;;;;;;9.93;100.00;95258.56;29395;233;63005;-62
2023/10/19 00:54:53;;;;;;;0.50;0.50;;;;;;;9.96;100.00;95255.19;29417;202;63009;-60
2023/10/19 00:55:28;;;;;;;0.50;0.50;;;;;;;9.99;100.00;95262.69;29394;495;64009;-65
2023/10/19 00:56:00;;;;;;;0.50;0.50;;;;;;;10.00;100.00;95262.34;29395;230;63009;-63
2023/10/19 00:56:32;;;;;;;0.50;0.50;;;;;;;10.01;100.00;95257.72;29395;294;63004;-65
2023/10/19 00:57:11;;;;;;;0.50;0.50;;;;;;;10.02;100.00;95254.69;29395;242;63009;-63
2023/10/19 00:57:48;;;;;;;0.57;0.57;;;;;;;10.05;100.00;95259.41;29395;251;63004;-59
2023/10/19 00:58:28;;;;;;;0.50;0.50;;;;;;;10.06;100.00;95255.59;29395;214;63009;-64
2023/10/19 00:59:07;;;;;;;0.50;0.50;;;;;;;10.08;100.00;95258.75;29395;198;63004;-63
2023/10/19 00:59:53;;;;;;;0.50;0.50;;;;;;;10.09;100.00;95259.56;29395;268;63008;-64
2023/10/19 01:00:33;;;;;;;0.50;0.50;;;;;;;10.13;100.00;95262.41;29394;357;64008;-65
2023/10/19 01:01:05;;;;;;;;;;;;;;;10.19;100.00;95258.38;29996;982;6005;-58
2023/10/19 01:01:43;;;;;;;0.50;0.50;;;;;;;10.22;100.00;95257.75;29422;208;63009;-60
2023/10/19 01:02:28;;;;;;;0.50;0.50;;;;;;;10.22;100.00;95249.62;29394;226;64009;-57
2023/10/19 01:03:04;;;;;;;0.62;0.62;;;;;;;10.24;100.00;95244.66;29395;299;63009;-67
2023/10/19 01:03:36;;;;;;;0.95;0.95;;;;;;;10.24;100.00;95244.66;29395;357;63005;-59
2023/10/19 01:04:08;;;;;;;0.40;0.40;;;;;;;10.23;100.00;95243.09;29395;277;63023;-59
2023/10/19 01:04:50;;;;;;;0.50;0.50;;;;;;;10.26;100.00;95231.59;29395;309;63004;-65
2023/10/19 01:05:22;;;;;;;0.60;0.60;;;;;;;10.23;100.00;95248.50;29395;446;63009;-65
2023/10/19 01:05:54;;;;;;;0.50;0.50;;;;;;;10.21;100.00;95239.91;29394;363;64004;-67
2023/10/19 01:06:31;;;;;;;1.15;1.15;;;;;;;10.21;100.00;95240.69;29395;227;63009;-62
2023/10/19 01:07:12;;;;;;;0.50;0.50;;;;;;;10.24;100.00;95239.25;29395;241;63004;-63
2023/10/19 01:07:47;;;;;;;0.50;0.50;;;;;;;10.27;100.00;95238.59;29417;361;63009;-67
2023/10/19 01:08:25;;;;;;;0.70;0.70;;;;;;;10.26;100.00;95240.50;29395;237;63005;-60
2023/10/19 01:08:57;;;;;;;1.08;1.08;;;;;;;10.25;100.00;95235.41;29395;219;63009;-66
2023/10/19 01:09:34;;;;;;;0.50;0.50;;;;;;;10.26;100.00;95242.44;29395;197;63005;-66
2023/10/19 01:10:23;;;;;;;0.50;0.50;;;;;;;10.22;100.00;95236.87;29395;226;63009;-63
2023/10/19 01:10:55;;;;;;;0.50;0.50;;;;;;;10.23;100.00;95241.16;29394;478;64009;-64
2023/10/19 01:11:28;;;;;;;0.50;0.50;;;;;;;10.25;100.00;95233.50;29395;420;63009;-62
2023/10/19 01:12:03;;;;;;;0.50;0.50;;;;;;;10.23;100.00;95235.75;29395;340;63010;-63
2023/10/19 01:12:38;;;;;;;0.50;0.50;;;;;;;10.19;100.00;95231.28;29395;290;63009;-66
2023/10/19 01:13:12;;;;;;;0.50;0.50;;;;;;;10.20;100.00;95232.91;29395;497;63016;-65
2023/10/19 01:13:46;;;;;;;0.50;0.50;;;;;;;10.18;100.00;95222.34;29395;378;63009;-66
2023/10/19 01:14:21;;;;;;;0.60;0.60;;;;;;;10.16;100.00;95229.22;29395;214;63008;-66
2023/10/19 01:15:13;;;;;;;0.70;0.70;;;;;;;10.20;100.00;95222.84;29395;393;63008;-64
2023/10/19 01:15:49;;;;;;;0.50;0.50;;;;;;;10.22;100.00;95226.03;29395;407;63015;-66
2023/10/19 01:16:20;;;;;;;1.33;1.30;;;;;;;10.27;100.00;95228.53;29394;380;64005;-67
2023/10/19 01:16:51;;;;;;;0.50;0.50;;;;;;;10.27;100.00;95219.63;29395;216;63005;-57
2023/10/19 01:17:26;;;;;;;0.45;0.45;;;;;;;10.26;100.00;95220.75;29395;196;63027;-65
2023/10/19 01:17:59;;;;;;;1.75;1.70;;;;;;;10.27;100.00;95219.63;29395;207;63005;-65
2023/10/19 01:18:32;;;;;;;0.50;0.50;;;;;;;10.32;100.00;95225.62;29394;206;64013;-66
2023/10/19 01:19:06;;;;;;;0.50;0.50;;;;;;;10.33;100.00;95221.00;29395;256;63005;-59
2023/10/19 01:19:40;;;;;;;0.50;0.50;;;;;;;10.33;100.00;95215.59;29395;206;63009;-64
2023/10/19 01:20:22;;;;;;;0.50;0.50;;;;;;;10.33;100.00;95216.38;29394;227;64004;-58
2023/10/19 01:20:55;;;;;;;0.50;0.50;;;;;;;10.31;100.00;95212.41;29394;226;64013;-58
2023/10/19 01:21:36;;;;;;;3.87;3.67;;;;;;;10.33;100.00;95215.59;29395;251;63004;-67
2023/10/19 01:22:08;;;;;;;0.50;0.50;;;;;;;10.32;100.00;95214.00;29394;273;64013;-59
2023/10/19 01:23:49;;;;;;;0.60;0.60;;;;;;;10.32;100.00;95205.88;29395;260;63009;-66
2023/10/19 01:24:33;;;;;;;0.60;0.60;;;;;;;10.34;100.00;95209.03;29395;406;63000;-59
2023/10/19 01:25:10;;;;;;;0.50;0.50;;;;;;;10.36;100.00;95204.09;29395;222;63009;-64
2023/10/19 01:26:05;;;;;;;0.70;0.70;;;;;;;10.36;100.00;95202.16;29395;208;63005;-63
2023/10/19 01:26:37;;;;;;;0.75;0.75;;;;;;;10.35;100.00;95195.16;29395;282;63009;-62
2023/10/19 01:27:09;;;;;;;0.50;0.50;;;;;;;10.40;100.00;95199.56;29394;335;64009;-64
2023/10/19 01:27:44;;;;;;;0.70;0.70;;;;;;;10.39;100.00;95195.28;29395;283;63009;-65
2023/10/19 01:28:17;;;;;;;0.80;0.80;;;;;;;10.40;100.00;95194.94;29395;280;63004;-65
2023/10/19 01:28:51;;;;;;;0.60;0.60;;;;;;;10.44;100.00;95194.25;29395;370;63009;-63
2023/10/19 01:29:27;;;;;;;0.50;0.50;;;;;;;10.43;100.00;95198.91;29395;304;63004;-65
2023/10/19 01:30:01;;;;;;;0.43;0.43;;;;;;;10.42;100.00;95197.31;29395;196;63008;-62
2023/10/19 01:30:33;;;;;;;0.55;0.55;;;;;;;10.40;100.00;95196.84;29395;235;63005;-64
2023/10/19 01:31:06;;;;;;;0.70;0.70;;;;;;;10.39;100.00;95203.41;29395;323;63009;-59
2023/10/19 01:31:38;;;;;;;0.60;0.60;;;;;;;10.40;100.00;95194.13;29394;198;64009;-64
2023/10/19 01:32:15;;;;;;;0.73;0.73;;;;;;;10.40;100.00;95188.72;29395;279;63021;-63
2023/10/19 01:32:50;;;;;;;0.73;0.73;;;;;;;10.42;100.00;95194.59;29395;219;63005;-60
2023/10/19 01:33:22;;;;;;;0.50;0.50;;;;;;;10.45;100.00;95196.66;29395;237;63024;-57
2023/10/19 01:33:56;;;;;;;1.92;1.83;;;;;;;10.44;100.00;95189.63;29395;288;63005;-64
2023/10/19 01:34:27;;;;;;;0.50;0.50;;;;;;;10.45;100.00;95193.94;29394;197;64013;-64
2023/10/19 01:34:58;;;;;;;0.50;0.50;;;;;;;10.44;100.00;95200.47;29395;366;63004;-60
2023/10/19 01:36:24;;;;;;;0.50;0.50;;;;;;;10.44;100.00;95195.06;29395;221;63009;-66
2023/10/19 01:36:24;;;;;;;;;;;;;;;10.41;100.00;95191.09;29996;983;6000;-64
2023/10/19 01:36:56;;;;;;;0.55;0.55;;;;;;;10.43;100.00;95187.25;29400;229;63004;-64
2023/10/19 01:37:27;;;;;;;0.50;0.50;;;;;;;10.44;100.00;95191.56;29395;269;63022;-66
2023/10/19 01:38:00;;;;;;;0.50;0.50;;;;;;;10.42;100.00;95183.75;29395;203;63005;-65
2023/10/19 01:38:32;;;;;;;0.70;0.70;;;;;;;10.43;100.00;95188.03;29395;218;63009;-64
2023/10/19 01:39:10;;;;;;;0.50;0.50;;;;;;;10.44;100.00;95189.63;29395;290;63009;-64
2023/10/19 01:39:45;;;;;;;0.50;0.50;;;;;;;10.44;100.00;95184.22;29394;228;64013;-65
2023/10/19 01:40:20;;;;;;;0.50;0.50;;;;;;;10.44;100.00;95184.22;29395;204;63018;-58
2023/10/19 01:40:54;;;;;;;0.50;0.50;;;;;;;10.46;100.00;95184.66;29395;233;63009;-63
2023/10/19 01:41:26;;;;;;;0.90;0.85;;;;;;;10.45;100.00;95185.78;29395;386;63000;-65
2023/10/19 01:41:58;;;;;;;0.50;0.50;;;;;;;10.44;100.00;95183.41;29395;330;63009;-66
2023/10/19 01:42:30;;;;;;;0.50;0.50;;;;;;;10.44;100.00;95178.78;29395;212;63004;-63
2023/10/19 01:43:05;;;;;;;0.50;0.50;;;;;;;10.44;100.00;95184.22;29394;220;64013;-60
2023/10/19 01:43:40;;;;;;;0.50;0.50;;;;;;;10.41;100.00;95179.44;29395;246;63004;-60
2023/10/19 01:44:15;;;;;;;0.50;0.50;;;;;;;10.41;100.00;95184.87;29395;411;63009;-59
2023/10/19 01:44:47;;;;;;;0.50;0.50;;;;;;;10.40;100.00;95177.88;29394;310;64008;-58
2023/10/19 01:45:19;;;;;;;1.15;1.00;;;;;;;10.38;100.00;95180.94;29395;342;63024;-57
2023/10/19 01:45:54;;;;;;;0.50;0.50;;;;;;;10.38;100.00;95191.00;29395;253;63005;-65
2023/10/19 01:46:33;;;;;;;0.50;0.50;;;;;;;10.38;100.00;95182.84;29395;216;63016;-64
2023/10/19 01:47:05;;;;;;;0.93;0.93;;;;;;;10.40;100.00;95177.88;29395;447;63005;-58
2023/10/19 01:47:40;;;;;;;0.50;0.50;;;;;;;10.40;100.00;95184.09;29395;210;63009;-64
2023/10/19 01:48:12;;;;;;;0.82;0.82;;;;;;;10.41;100.00;95184.87;29395;233;63005;-66
2023/10/19 01:48:44;;;;;;;0.50;0.50;;;;;;;10.41;100.00;95187.59;29395;222;63020;-60
2023/10/19 01:49:25;;;;;;;0.50;0.50;;;;;;;10.40;100.00;95177.88;29395;199;63004;-59
2023/10/19 01:49:57;;;;;;;0.50;0.50;;;;;;;10.38;100.00;95180.94;29394;228;64013;-57
2023/10/19 01:50:28;;;;;;;0.50;0.50;;;;;;;10.39;100.00;95177.09;29395;294;63004;-66
2023/10/19 01:51:04;;;;;;;0.50;0.50;;;;;;;10.40;100.00;95177.88;29395;208;63008;-64
2023/10/19 01:51:38;;;;;;;0.50;0.50;;;;;;;10.41;100.00;95180.25;29395;545;63004;-59
2023/10/19 01:52:10;;;;;;;0.50;0.50;;;;;;;10.43;100.00;95177.19;29395;343;63008;-65
2023/10/19 01:52:44;;;;;;;0.50;0.50;;;;;;;10.42;100.00;95175.63;29395;220;63005;-67
2023/10/19 01:53:17;;;;;;;0.50;0.50;;;;;;;10.43;100.00;95181.84;29395;476;63023;-64
2023/10/19 01:53:49;;;;;;;0.50;0.50;;;;;;;10.41;100.00;95174.03;29395;198;63005;-65
2023/10/19 01:54:24;;;;;;;0.50;0.50;;;;;;;10.41;100.00;95179.44;29395;206;63009;-59
2023/10/19 01:55:02;;;;;;;0.50;0.50;;;;;;;10.41;100.00;95184.87;29394;197;64009;-62
2023/10/19 01:55:38;;;;;;;0.50;0.50;;;;;;;10.43;100.00;95179.13;29395;223;63009;-62
2023/10/19 01:56:14;;;;;;;0.50;0.50;;;;;;;10.44;100.00;95178.00;29395;370;63004;-65
2023/10/19 01:56:45;;;;;;;0.50;0.50;;;;;;;10.43;100.00;95179.91;29395;231;63009;-65
2023/10/19 01:57:18;;;;;;;0.50;0.50;;;;;;;10.43;100.00;95174.50;29395;340;63004;-59
2023/10/19 01:57:50;;;;;;;0.50;0.50;;;;;;;10.43;100.00;95177.19;29395;202;63009;-58
2023/10/19 01:58:21;;;;;;;0.50;0.50;;;;;;;10.44;100.00;95183.41;29395;218;63004;-64
2023/10/19 01:58:54;;;;;;;0.50;0.50;;;;;;;10.44;100.00;95176.06;29395;475;63008;-66
2023/10/19 01:59:29;;;;;;;0.50;0.50;;;;;;;10.44;100.00;95180.72;29395;213;63005;-64
2023/10/19 02:00:09;;;;;;;0.70;0.70;;;;;;;10.46;100.00;95184.66;29394;210;64014;-65
2023/10/19 02:00:43;;;;;;;0.50;0.50;;;;;;;10.49;100.00;95181.28;29417;268;63011;-66
2023/10/19 02:01:20;;;;;;;0.50;0.50;;;;;;;10.49;100.00;95178.59;29395;262;63009;-66
2023/10/19 02:01:51;;;;;;;2.50;2.40;;;;;;;10.49;100.00;95181.28;29394;213;64009;-64
2023/10/19 02:02:24;;;;;;;0.40;0.40;;;;;;;10.50;100.00;95182.09;29395;208;63009;-58
2023/10/19 02:02:56;;;;;;;0.50;0.50;;;;;;;10.51;100.00;95179.03;29394;220;64009;-64
2023/10/19 02:03:28;;;;;;;1.05;1.05;;;;;;;10.55;100.00;95179.97;29395;198;63009;-57
2023/10/19 02:04:03;;;;;;;0.50;0.50;;;;;;;10.57;100.00;95187.78;29395;259;63004;-64
2023/10/19 02:04:40;;;;;;;0.50;0.50;;;;;;;10.56;100.00;95181.56;29395;196;63009;-58
2023/10/19 02:05:15;;;;;;;0.50;0.50;;;;;;;10.57;100.00;95183.13;29394;379;64009;-63
2023/10/19 02:05:49;;;;;;;0.50;0.50;;;;;;;10.59;100.00;95180.88;29395;223;63009;-65
2023/10/19 02:18:37;;;;;;;0.50;0.50;;;;;;;11.04;100.00;95163.81;29395;239;63005;-63
2023/10/19 02:19:09;;;;;;;0.80;0.80;;;;;;;11.07;100.00;95168.56;29394;222;64009;-64
2023/10/19 02:19:41;;;;;;;0.50;0.50;;;;;;;11.05;100.00;95163.47;29395;265;63005;-64
2023/10/19 02:20:17;;;;;;;0.50;0.50;;;;;;;11.03;100.00;95159.53;29394;288;64004;-66
2023/10/19 02:20:52;;;;;;;0.50;0.50;;;;;;;11.03;100.00;95167.66;29395;232;63004;-64
2023/10/19 02:21:29;;;;;;;0.50;0.50;;;;;;;10.99;100.00;95153.97;29395;202;63009;-64
2023/10/19 02:22:06;;;;;;;0.50;0.50;;;;;;;10.99;100.00;95166.75;29394;222;64009;-65
2023/10/19 02:22:38;;;;;;;0.40;0.40;;;;;;;11.00;100.00;95157.47;29395;215;63009;-58
2023/10/19 02:23:11;;;;;;;0.50;0.50;;;;;;;11.00;100.00;95163.69;29395;227;63004;-65
2023/10/19 02:23:43;;;;;;;0.50;0.50;;;;;;;11.04;100.00;95164.59;29395;207;63009;-66
2023/10/19 02:24:16;;;;;;;0.65;0.65;;;;;;;11.06;100.00;95156.13;29395;202;63005;-62
2023/10/19 02:24:47;;;;;;;0.50;0.50;;;;;;;11.06;100.00;95154.22;29394;234;64014;-63
2023/10/19 02:25:19;;;;;;;0.50;0.50;;;;;;;11.08;100.00;95159.31;29395;199;63005;-63
2023/10/19 02:25:51;;;;;;;0.50;0.50;;;;;;;11.09;100.00;95160.84;29395;256;63009;-65
2023/10/19 02:26:30;;;;;;;0.60;0.60;;;;;;;11.09;100.00;95153.50;29395;238;63005;-67
2023/10/19 02:27:05;;;;;;;0.50;0.50;;;;;;;11.10;100.00;95162.44;29395;209;63009;-63
2023/10/19 02:27:36;;;;;;;0.50;0.50;;;;;;;11.12;100.00;95160.19;29395;210;63004;-66
2023/10/19 02:28:11;;;;;;;0.50;0.50;;;;;;;11.11;100.00;95158.59;29395;258;63009;-58
2023/10/19 02:28:47;;;;;;;0.50;0.50;;;;;;;11.10;100.00;95162.44;29395;214;63004;-59
2023/10/19 02:29:18;;;;;;;0.50;0.50;;;;;;;11.09;100.00;95160.84;29395;269;63009;-63
2023/10/19 02:29:53;;;;;;;0.50;0.50;;;;;;;11.06;100.00;95156.91;29394;198;64008;-64
2023/10/19 02:30:27;;;;;;;0.50;0.50;;;;;;;11.05;100.00;95151.84;29395;216;63008;-65
2023/10/19 02:31:11;;;;;;;0.50;0.50;;;;;;;11.03;100.00;95156.81;29395;214;63010;-64
2023/10/19 02:31:43;;;;;;;0.50;0.50;;;;;;;11.01;100.00;95159.84;29394;235;64014;-64
2023/10/19 02:32:17;;;;;;;0.50;0.50;;;;;;;11.00;100.00;95152.84;29395;273;63005;-59
2023/10/19 02:32:49;;;;;;;0.50;0.50;;;;;;;11.04;100.00;95155.69;29394;249;64013;-64
2023/10/19 02:33:20;;;;;;;0.50;0.50;;;;;;;11.03;100.00;95151.38;29395;260;63005;-65
2023/10/19 02:33:59;;;;;;;0.50;0.50;;;;;;;11.03;100.00;95156.81;29395;219;63009;-65
2023/10/19 02:34:31;;;;;;;0.50;0.50;;;;;;;11.03;100.00;95154.09;29395;215;63014;-63
2023/10/19 02:35:02;;;;;;;0.50;0.50;;;;;;;11.06;100.00;95153.41;29395;259;63009;-65
2023/10/19 02:35:37;;;;;;;0.50;0.50;;;;;;;11.06;100.00;95150.69;29395;242;63004;-64
2023/10/19 02:36:13;;;;;;;0.40;0.40;;;;;;;11.06;100.00;95148.78;29395;238;63009;-63
2023/10/19 02:36:45;;;;;;;0.50;0.50;;;;;;;11.07;100.00;95152.28;29395;271;63004;-66
2023/10/19 02:37:16;;;;;;;0.50;0.50;;;;;;;11.05;100.00;95146.41;29395;264;63008;-60
2023/10/19 02:37:48;;;;;;;0.50;0.50;;;;;;;11.09;100.00;95155.44;29395;255;63004;-59
2023/10/19 02:38:19;;;;;;;0.50;0.50;;;;;;;11.08;100.00;95149.25;29394;215;64014;-64
2023/10/19 02:38:51;;;;;;;0.50;0.50;;;;;;;11.06;100.00;95145.28;29395;236;63010;-64
2023/10/19 02:39:28;;;;;;;0.50;0.50;;;;;;;11.06;100.00;95150.69;29395;207;63009;-59
2023/10/19 02:40:00;;;;;;;0.50;0.50;;;;;;;11.09;100.00;95150.00;29395;230;63005;-59
2023/10/19 02:40:31;;;;;;;0.50;0.50;;;;;;;11.09;100.00;95155.44;29395;232;63009;-64
2023/10/19 02:41:05;;;;;;;0.43;0.43;;;;;;;11.08;100.00;95151.16;29395;219;63005;-64
2023/10/19 02:41:44;;;;;;;0.50;0.50;;;;;;;11.07;100.00;95147.66;29395;262;63009;-60
2023/10/19 02:42:15;;;;;;;0.50;0.50;;;;;;;11.08;100.00;95151.16;29395;251;63004;-66
2023/10/19 02:42:53;;;;;;;0.47;0.47;;;;;;;11.08;100.00;95151.16;29395;226;63009;-63
2023/10/19 02:43:25;;;;;;;0.50;0.50;;;;;;;11.08;100.00;95148.44;29394;316;64009;-61
2023/10/19 02:44:09;;;;;;;0.50;0.50;;;;;;;11.09;100.00;95148.06;29395;196;63009;-58
2023/10/19 02:44:41;;;;;;;0.50;0.50;;;;;;;11.11;100.00;95153.16;29395;215;63004;-62
2023/10/19 02:45:15;;;;;;;0.43;0.43;;;;;;;11.13;100.00;95150.91;29395;229;63013;-63
2023/10/19 02:45:47;;;;;;;2.85;2.67;;;;;;;11.12;100.00;95143.91;29395;221;63005;-60
2023/10/19 02:46:20;;;;;;;0.50;0.50;;;;;;;11.12;100.00;95153.97;29395;244;63009;-64
2023/10/19 02:46:58;;;;;;;0.50;0.50;;;;;;;11.11;100.00;95150.47;29395;209;63008;-60
2023/10/19 02:47:29;;;;;;;0.50;0.50;;;;;;;11.12;100.00;95149.31;29395;219;63009;-64
2023/10/19 02:48:01;;;;;;;0.50;0.50;;;;;;;11.13;100.00;95150.12;29394;206;64009;-59
2023/10/19 02:48:32;;;;;;;0.50;0.50;;;;;;;11.13;100.00;95145.47;29395;198;63009;-59
2023/10/19 02:49:11;;;;;;;0.50;0.50;;;;;;;11.14;100.00;95141.62;29395;248;63005;-64
2023/10/19 02:49:50;;;;;;;0.50;0.50;;;;;;;11.15;100.00;95147.84;29417;242;63019;-60
2023/10/19 02:50:26;;;;;;;0.50;0.50;;;;;;;11.13;100.00;95150.91;29395;216;63004;-64
2023/10/19 02:51:08;;;;;;;0.50;0.50;;;;;;;11.14;100.00;95147.06;29395;245;63009;-64
2023/10/19 02:51:45;;;;;;;0.50;0.50;;;;;;;11.13;100.00;95148.19;29394;209;64009;-63
2023/10/19 02:52:16;;;;;;;0.50;0.50;;;;;;;11.11;100.00;95145.03;29395;244;63008;-64
2023/10/19 02:52:48;;;;;;;0.50;0.50;;;;;;;11.10;100.00;95148.88;29395;236;63004;-65
2023/10/19 02:53:19;;;;;;;0.50;0.50;;;;;;;11.09;100.00;95150.78;29394;302;64009;-64
2023/10/19 02:53:51;;;;;;;0.50;0.50;;;;;;;11.10;100.00;95146.16;29395;220;63005;-59
2023/10/19 02:54:24;;;;;;;0.50;0.50;;;;;;;11.09;100.00;95139.94;29395;224;63009;-62
2023/10/19 02:54:57;;;;;;;0.50;0.50;;;;;;;11.11;100.00;95141.53;29394;196;64009;-59
2023/10/19 02:55:28;;;;;;;0.50;0.50;;;;;;;11.11;100.00;95139.59;29395;231;63009;-60
2023/10/19 02:56:05;;;;;;;0.50;0.50;;;;;;;11.11;100.00;95142.31;29395;257;63005;-62
2023/10/19 02:56:38;;;;;;;0.50;0.50;;;;;;;11.13;100.00;95140.06;29395;216;63009;-65
2023/10/19 02:57:12;;;;;;;0.88;0.88;;;;;;;11.15;100.00;95139.72;29395;211;63018;-65
2023/10/19 02:57:46;;;;;;;0.50;0.50;;;;;;;11.16;100.00;95135.88;29394;202;64013;-62
2023/10/19 02:58:19;;;;;;;0.50;0.50;;;;;;;11.15;100.00;95143.22;29395;231;63004;-63
2023/10/19 02:58:51;;;;;;;0.50;0.50;;;;;;;11.15;100.00;95137.00;29395;210;63009;-64
2023/10/19 02:59:31;;;;;;;0.50;0.50;;;;;;;11.15;100.00;95148.66;29395;246;63004;-66
2023/10/19 03:00:13;;;;;;;0.50;0.50;;;;;;;11.15;100.00;95147.84;29416;253;64013;-63
2023/10/19 03:00:45;;;;;;;;;;;;;;;11.17;100.00;95142.88;29996;983;6000;-62
2023/10/19 03:01:21;;;;;;;0.50;0.50;;;;;;;11.18;100.00;95142.56;29400;211;63005;-63
2023/10/19 03:02:51;;;;;;;0.50;0.50;;;;;;;11.27;100.00;95139.72;29394;234;64009;-59
2023/10/19 03:03:23;;;;;;;0.80;0.80;;;;;;;11.27;100.00;95139.72;29395;205;63009;-63
2023/10/19 03:03:59;;;;;;;0.50;0.50;;;;;;;11.26;100.00;95138.94;29395;255;63005;-63
2023/10/19 03:04:31;;;;;;;0.50;0.50;;;;;;;11.25;100.00;95148.22;29395;208;63019;-64
2023/10/19 03:05:10;;;;;;;0.50;0.50;;;;;;;11.25;100.00;95148.22;29394;197;64009;-65
2023/10/19 03:05:43;;;;;;;0.50;0.50;;;;;;;11.27;100.00;95145.16;29395;250;63018;-64
2023/10/19 03:06:15;;;;;;;0.50;0.50;;;;;;;11.26;100.00;95144.38;29395;196;63004;-62
2023/10/19 03:06:47;;;;;;;0.50;0.50;;;;;;;11.26;100.00;95138.94;29395;202;63009;-58